Global Glory — 3FHR8 — position and weather

sailwx.info

Track history (hours):
 
Tides and Currents Weather Stations Pressure Air Temp Water Temp Dewpoint Dewpoint Depression Visibility Wind Speed Wind Dir Waves Ship Positions

Global Glory

Last reported at 2016-Jun-26 15:05 UTC. Time now 2016-Jun-27 04:10 UTC.
Position N 36°14' E 122°08'.

Length 189 m; draft 10.8 m.

Type: Cargo ship. MMSI: 354338000.

Date/timePositionNaut miles runAvg speedWind from/ knotsBaromVisibWave heightAir tempDewpointWater temp
2016-Jun-26 15:05N 36°14' E 122°08'610.2
2016-Jun-26 14:32N 36°17' E 122°13'1010.3
2016-Jun-26 13:33N 36°24' E 122°23'1010.4
2016-Jun-26 12:33N 36°30' E 122°32'1010.4
2016-Jun-26 11:33N 36°37' E 122°42'10 9.9
2016-Jun-26 10:33N 36°47' E 122°44'1111.4
2016-Jun-26 09:33N 36°58' E 122°47'1212.1
2016-Jun-26 08:33N 37°10' E 122°47'1312.4
2016-Jun-26 07:31N 37°23' E 122°47'1211.7
2016-Jun-26 06:28N 37°34' E 122°38'1111.7
2016-Jun-26 05:33N 37°40' E 122°27'1111.0
2016-Jun-26 04:32N 37°47' E 122°16'3611.1
2016-Jun-26 01:18N 38°08' E 121°39'911.6
2016-Jun-26 00:31N 38°14' E 121°30'1111.9
2016-Jun-25 23:33N 38°20' E 121°18'1212.0
2016-Jun-25 22:33N 38°28' E 121°06'7811.2
2016-Jun-25 15:33N 39°25' E 119°58'1111.4
2016-Jun-25 14:33N 39°34' E 119°49'23 0.8
2016-Jun-24 09:09N 39°54' E 119°35'0 0.0
2016-Jun-24 07:30N 39°54' E 119°35'0 0.0
2016-Jun-24 04:30N 39°54' E 119°35'0 0.0
2016-Jun-24 03:24N 39°54' E 119°35'0 0.0
2016-Jun-24 02:24N 39°54' E 119°35'0 0.0
2016-Jun-24 01:30N 39°54' E 119°35'0 0.0
2016-Jun-24 00:24N 39°54' E 119°35'0 0.0
2016-Jun-23 23:30N 39°54' E 119°35'0 0.0
2016-Jun-23 22:30N 39°54' E 119°35'0 0.0
2016-Jun-23 21:24N 39°54' E 119°35'0 0.0
2016-Jun-23 20:12N 39°54' E 119°35'0 0.0
2016-Jun-23 19:24N 39°54' E 119°35'0 0.0
2016-Jun-23 18:24N 39°54' E 119°35'0 0.0
2016-Jun-23 17:30N 39°54' E 119°35'0 0.0
2016-Jun-23 16:30N 39°54' E 119°35'0 0.0
2016-Jun-23 15:30N 39°54' E 119°35'0 0.0
2016-Jun-23 14:30N 39°54' E 119°35'0 0.0
2016-Jun-23 13:24N 39°54' E 119°35'0 0.0
2016-Jun-23 12:12N 39°54' E 119°35'0 0.0
2016-Jun-23 11:30N 39°54' E 119°35'0 0.0
2016-Jun-23 10:30N 39°54' E 119°35'0 0.0
2016-Jun-23 09:30N 39°54' E 119°35'0 0.0
2016-Jun-23 08:30N 39°54' E 119°35'0 0.0
2016-Jun-23 07:30N 39°54' E 119°35'0 0.0
2016-Jun-23 05:30N 39°54' E 119°35'0 0.0
2016-Jun-23 04:30N 39°54' E 119°35'0 0.0
2016-Jun-23 02:30N 39°54' E 119°35'0 0.0
2016-Jun-23 01:24N 39°54' E 119°35'0 0.0
2016-Jun-23 00:30N 39°54' E 119°35'0 0.0
2016-Jun-22 23:12N 39°54' E 119°35'0 0.0
2016-Jun-22 22:06N 39°54' E 119°35'0 0.0
2016-Jun-22 21:30N 39°54' E 119°35'0 0.0
2016-Jun-22 20:30N 39°54' E 119°35'3 1.5
2016-Jun-22 18:28N 39°53' E 119°38'6 6.6
2016-Jun-22 17:33N 39°47' E 119°40'0 0.2
2016-Jun-22 16:07N 39°47' E 119°39'0 0.0
2016-Jun-22 15:19N 39°47' E 119°39'0 0.0
2016-Jun-22 13:13N 39°47' E 119°39'0 0.1
2016-Jun-22 12:28N 39°47' E 119°39'0 0.1
2016-Jun-22 11:25N 39°47' E 119°39'0 0.1
2016-Jun-22 10:25N 39°47' E 119°40'0 0.0
2016-Jun-22 09:31N 39°47' E 119°40'0 0.0
2016-Jun-22 08:25N 39°47' E 119°40'0 0.0
2016-Jun-22 07:25N 39°47' E 119°40'0 0.0
2016-Jun-22 06:25N 39°47' E 119°40'0 0.0
2016-Jun-22 03:28N 39°47' E 119°39'0 0.0
2016-Jun-22 01:19N 39°47' E 119°39'0 0.1
2016-Jun-21 23:31N 39°47' E 119°40'0 0.0
2016-Jun-21 22:31N 39°47' E 119°40'0 0.1
2016-Jun-21 21:31N 39°47' E 119°40'0 0.0
2016-Jun-21 19:25N 39°47' E 119°40'0 0.0
2016-Jun-21 18:25N 39°47' E 119°40'0 0.1
2016-Jun-21 17:31N 39°47' E 119°39'0 0.1
2016-Jun-21 16:13N 39°47' E 119°39'0 0.0
2016-Jun-21 15:25N 39°47' E 119°39'0 0.1
2016-Jun-21 14:31N 39°47' E 119°39'0 0.0
2016-Jun-21 13:31N 39°47' E 119°39'0 0.0
2016-Jun-21 05:33N 39°47' E 119°40'1 0.6
2016-Jun-21 04:33N 39°47' E 119°40'96 7.9
2016-Jun-20 16:22N 38°57' E 117°54'7 9.3
2016-Jun-20 15:33N 38°59' E 117°45'0 0.2
2016-Jun-20 14:32N 38°59' E 117°45'0 0.0
2016-Jun-20 13:34N 38°59' E 117°45'0 0.0
2016-Jun-20 12:34N 38°59' E 117°45'0 0.0
2016-Jun-20 11:34N 38°59' E 117°45'0 0.0
2016-Jun-20 10:27N 38°59' E 117°45'0 0.0
2016-Jun-20 09:31N 38°59' E 117°45'0 0.0
2016-Jun-19 10:21N 38°59' E 117°45'0 0.0
2016-Jun-19 09:33N 38°59' E 117°45'0 0.0
2016-Jun-19 08:33N 38°59' E 117°45'0 0.0
2016-Jun-19 07:33N 38°59' E 117°45'0 0.0
2016-Jun-19 06:33N 38°59' E 117°45'0 0.0
2016-Jun-19 05:33N 38°59' E 117°45'0 0.0
2016-Jun-17 10:26N 38°59' E 117°45'0 0.0
2016-Jun-17 09:32N 38°59' E 117°45'0 0.0
2016-Jun-17 08:32N 38°59' E 117°45'0 0.0
2016-Jun-17 07:08N 38°59' E 117°45'0 0.0
2016-Jun-17 06:32N 38°59' E 117°45'0 0.0
2016-Jun-17 05:32N 38°59' E 117°45'0 0.0
2016-Jun-17 04:32N 38°59' E 117°45'0 0.0
2016-Jun-17 03:32N 38°59' E 117°45'0 0.0
2016-Jun-17 02:32N 38°59' E 117°45'0 0.0
2016-Jun-17 01:32N 38°59' E 117°45'0 0.0
2016-Jun-17 00:32N 38°59' E 117°45'0 0.0
2016-Jun-16 23:08N 38°59' E 117°45'0 0.0
2016-Jun-16 22:26N 38°59' E 117°45'0 0.0
2016-Jun-16 21:32N 38°59' E 117°45'0 0.0
2016-Jun-16 20:32N 38°59' E 117°45'0 0.0
2016-Jun-16 19:32N 38°59' E 117°45'0 0.0
2016-Jun-16 18:32N 38°59' E 117°45'0 0.0
2016-Jun-16 17:32N 38°59' E 117°45'0 0.0
2016-Jun-16 15:32N 38°59' E 117°45'  
Track history (hours):
 
Tides and Currents Weather Stations Pressure Air Temp Water Temp Dewpoint Dewpoint Depression Visibility Wind Speed Wind Dir Waves Ship Positions

Global Glory

Last reported at 2016-Jun-26 15:05 UTC. Time now 2016-Jun-27 04:10 UTC.
Position N 36°14' E 122°08'.

Length 189 m; draft 10.8 m.

Type: Cargo ship. MMSI: 354338000.

Date/timePositionNaut miles runAvg speedWind from/ knotsBaromVisibWave heightAir tempDewpointWater temp
2016-Jun-26 15:05N 36°14' E 122°08'610.2
2016-Jun-26 14:32N 36°17' E 122°13'1010.3
2016-Jun-26 13:33N 36°24' E 122°23'1010.4
2016-Jun-26 12:33N 36°30' E 122°32'1010.4
2016-Jun-26 11:33N 36°37' E 122°42'10 9.9
2016-Jun-26 10:33N 36°47' E 122°44'1111.4
2016-Jun-26 09:33N 36°58' E 122°47'1212.1
2016-Jun-26 08:33N 37°10' E 122°47'1312.4
2016-Jun-26 07:31N 37°23' E 122°47'1211.7
2016-Jun-26 06:28N 37°34' E 122°38'1111.7
2016-Jun-26 05:33N 37°40' E 122°27'1111.0
2016-Jun-26 04:32N 37°47' E 122°16'3611.1
2016-Jun-26 01:18N 38°08' E 121°39'911.6
2016-Jun-26 00:31N 38°14' E 121°30'1111.9
2016-Jun-25 23:33N 38°20' E 121°18'1212.0
2016-Jun-25 22:33N 38°28' E 121°06'7811.2
2016-Jun-25 15:33N 39°25' E 119°58'1111.4
2016-Jun-25 14:33N 39°34' E 119°49'23 0.8
2016-Jun-24 09:09N 39°54' E 119°35'0 0.0
2016-Jun-24 07:30N 39°54' E 119°35'0 0.0
2016-Jun-24 04:30N 39°54' E 119°35'0 0.0
2016-Jun-24 03:24N 39°54' E 119°35'0 0.0
2016-Jun-24 02:24N 39°54' E 119°35'0 0.0
2016-Jun-24 01:30N 39°54' E 119°35'0 0.0
2016-Jun-24 00:24N 39°54' E 119°35'0 0.0
2016-Jun-23 23:30N 39°54' E 119°35'0 0.0
2016-Jun-23 22:30N 39°54' E 119°35'0 0.0
2016-Jun-23 21:24N 39°54' E 119°35'0 0.0
2016-Jun-23 20:12N 39°54' E 119°35'0 0.0
2016-Jun-23 19:24N 39°54' E 119°35'0 0.0
2016-Jun-23 18:24N 39°54' E 119°35'0 0.0
2016-Jun-23 17:30N 39°54' E 119°35'0 0.0
2016-Jun-23 16:30N 39°54' E 119°35'0 0.0
2016-Jun-23 15:30N 39°54' E 119°35'0 0.0
2016-Jun-23 14:30N 39°54' E 119°35'0 0.0
2016-Jun-23 13:24N 39°54' E 119°35'0 0.0
2016-Jun-23 12:12N 39°54' E 119°35'0 0.0
2016-Jun-23 11:30N 39°54' E 119°35'0 0.0
2016-Jun-23 10:30N 39°54' E 119°35'0 0.0
2016-Jun-23 09:30N 39°54' E 119°35'0 0.0
2016-Jun-23 08:30N 39°54' E 119°35'0 0.0
2016-Jun-23 07:30N 39°54' E 119°35'0 0.0
2016-Jun-23 05:30N 39°54' E 119°35'0 0.0
2016-Jun-23 04:30N 39°54' E 119°35'0 0.0
2016-Jun-23 02:30N 39°54' E 119°35'0 0.0
2016-Jun-23 01:24N 39°54' E 119°35'0 0.0
2016-Jun-23 00:30N 39°54' E 119°35'0 0.0
2016-Jun-22 23:12N 39°54' E 119°35'0 0.0
2016-Jun-22 22:06N 39°54' E 119°35'0 0.0
2016-Jun-22 21:30N 39°54' E 119°35'0 0.0
2016-Jun-22 20:30N 39°54' E 119°35'3 1.5
2016-Jun-22 18:28N 39°53' E 119°38'6 6.6
2016-Jun-22 17:33N 39°47' E 119°40'0 0.2
2016-Jun-22 16:07N 39°47' E 119°39'0 0.0
2016-Jun-22 15:19N 39°47' E 119°39'0 0.0
2016-Jun-22 13:13N 39°47' E 119°39'0 0.1
2016-Jun-22 12:28N 39°47' E 119°39'0 0.1
2016-Jun-22 11:25N 39°47' E 119°39'0 0.1
2016-Jun-22 10:25N 39°47' E 119°40'0 0.0
2016-Jun-22 09:31N 39°47' E 119°40'0 0.0
2016-Jun-22 08:25N 39°47' E 119°40'0 0.0
2016-Jun-22 07:25N 39°47' E 119°40'0 0.0
2016-Jun-22 06:25N 39°47' E 119°40'0 0.0
2016-Jun-22 03:28N 39°47' E 119°39'0 0.0
2016-Jun-22 01:19N 39°47' E 119°39'0 0.1
2016-Jun-21 23:31N 39°47' E 119°40'0 0.0
2016-Jun-21 22:31N 39°47' E 119°40'0 0.1
2016-Jun-21 21:31N 39°47' E 119°40'0 0.0
2016-Jun-21 19:25N 39°47' E 119°40'0 0.0
2016-Jun-21 18:25N 39°47' E 119°40'0 0.1
2016-Jun-21 17:31N 39°47' E 119°39'0 0.1
2016-Jun-21 16:13N 39°47' E 119°39'0 0.0
2016-Jun-21 15:25N 39°47' E 119°39'0 0.1
2016-Jun-21 14:31N 39°47' E 119°39'0 0.0
2016-Jun-21 13:31N 39°47' E 119°39'0 0.0
2016-Jun-21 05:33N 39°47' E 119°40'1 0.6
2016-Jun-21 04:33N 39°47' E 119°40'96 7.9
2016-Jun-20 16:22N 38°57' E 117°54'7 9.3
2016-Jun-20 15:33N 38°59' E 117°45'0 0.2
2016-Jun-20 14:32N 38°59' E 117°45'0 0.0
2016-Jun-20 13:34N 38°59' E 117°45'0 0.0
2016-Jun-20 12:34N 38°59' E 117°45'0 0.0
2016-Jun-20 11:34N 38°59' E 117°45'0 0.0
2016-Jun-20 10:27N 38°59' E 117°45'0 0.0
2016-Jun-20 09:31N 38°59' E 117°45'0 0.0
2016-Jun-19 10:21N 38°59' E 117°45'0 0.0
2016-Jun-19 09:33N 38°59' E 117°45'0 0.0
2016-Jun-19 08:33N 38°59' E 117°45'0 0.0
2016-Jun-19 07:33N 38°59' E 117°45'0 0.0
2016-Jun-19 06:33N 38°59' E 117°45'0 0.0
2016-Jun-19 05:33N 38°59' E 117°45'0 0.0
2016-Jun-17 10:26N 38°59' E 117°45'0 0.0
2016-Jun-17 09:32N 38°59' E 117°45'0 0.0
2016-Jun-17 08:32N 38°59' E 117°45'0 0.0
2016-Jun-17 07:08N 38°59' E 117°45'0 0.0
2016-Jun-17 06:32N 38°59' E 117°45'0 0.0
2016-Jun-17 05:32N 38°59' E 117°45'0 0.0
2016-Jun-17 04:32N 38°59' E 117°45'0 0.0
2016-Jun-17 03:32N 38°59' E 117°45'0 0.0
2016-Jun-17 02:32N 38°59' E 117°45'0 0.0
2016-Jun-17 01:32N 38°59' E 117°45'0 0.0
2016-Jun-17 00:32N 38°59' E 117°45'0 0.0
2016-Jun-16 23:08N 38°59' E 117°45'0 0.0
2016-Jun-16 22:26N 38°59' E 117°45'0 0.0
2016-Jun-16 21:32N 38°59' E 117°45'0 0.0
2016-Jun-16 20:32N 38°59' E 117°45'0 0.0
2016-Jun-16 19:32N 38°59' E 117°45'0 0.0
2016-Jun-16 18:32N 38°59' E 117°45'0 0.0
2016-Jun-16 17:32N 38°59' E 117°45'0 0.0
2016-Jun-16 15:32N 38°59' E 117°45'  

Dump ship's entire track history